sensor_id;sensor_type;location;lat;lon;timestamp;P1;durP1;ratioP1;P2;durP2;ratioP2
21215;SDS011;10765;50.954;5.322;2024-03-23T00:55:04;14.57;;;5.50;;
21215;SDS011;10765;50.954;5.322;2024-03-23T00:57:32;11.83;;;5.20;;
21215;SDS011;10765;50.954;5.322;2024-03-23T00:59:58;20.63;;;6.50;;
21215;SDS011;10765;50.954;5.322;2024-03-23T01:02:25;13.83;;;5.90;;
21215;SDS011;10765;50.954;5.322;2024-03-23T01:04:51;14.87;;;5.90;;
21215;SDS011;10765;50.954;5.322;2024-03-23T01:07:18;10.17;;;5.03;;
21215;SDS011;10765;50.954;5.322;2024-03-23T01:09:44;14.70;;;5.60;;
21215;SDS011;10765;50.954;5.322;2024-03-23T01:12:12;14.30;;;5.57;;
21215;SDS011;10765;50.954;5.322;2024-03-23T01:14:38;11.13;;;4.80;;
21215;SDS011;10765;50.954;5.322;2024-03-23T01:17:04;10.83;;;5.13;;
21215;SDS011;10765;50.954;5.322;2024-03-23T01:19:30;12.13;;;5.13;;
21215;SDS011;10765;50.954;5.322;2024-03-23T01:21:57;13.13;;;5.53;;
21215;SDS011;10765;50.954;5.322;2024-03-23T01:24:23;12.07;;;5.70;;
21215;SDS011;10765;50.954;5.322;2024-03-23T01:26:50;13.00;;;5.70;;
21215;SDS011;10765;50.954;5.322;2024-03-23T01:29:17;12.17;;;5.27;;
21215;SDS011;10765;50.954;5.322;2024-03-23T01:31:44;14.97;;;5.30;;
21215;SDS011;10765;50.954;5.322;2024-03-23T01:34:10;11.37;;;5.27;;
21215;SDS011;10765;50.954;5.322;2024-03-23T01:36:37;14.53;;;5.40;;
21215;SDS011;10765;50.954;5.322;2024-03-23T01:39:04;8.23;;;4.37;;
21215;SDS011;10765;50.954;5.322;2024-03-23T01:41:34;8.53;;;4.27;;
21215;SDS011;10765;50.954;5.322;2024-03-23T01:44:00;12.33;;;4.60;;
21215;SDS011;10765;50.954;5.322;2024-03-23T01:46:33;12.13;;;4.50;;
21215;SDS011;10765;50.954;5.322;2024-03-23T01:49:00;12.50;;;4.53;;
21215;SDS011;10765;50.954;5.322;2024-03-23T01:51:27;9.33;;;3.70;;
21215;SDS011;10765;50.954;5.322;2024-03-23T01:53:54;10.13;;;4.33;;
21215;SDS011;10765;50.954;5.322;2024-03-23T01:56:22;12.70;;;5.03;;
21215;SDS011;10765;50.954;5.322;2024-03-23T01:58:48;10.07;;;4.60;;
21215;SDS011;10765;50.954;5.322;2024-03-23T02:01:15;13.50;;;5.67;;
21215;SDS011;10765;50.954;5.322;2024-03-23T02:03:42;13.20;;;5.07;;
21215;SDS011;10765;50.954;5.322;2024-03-23T02:06:09;12.53;;;5.60;;
21215;SDS011;10765;50.954;5.322;2024-03-23T02:08:35;14.20;;;5.90;;
21215;SDS011;10765;50.954;5.322;2024-03-23T02:11:02;13.37;;;5.47;;
21215;SDS011;10765;50.954;5.322;2024-03-23T02:13:28;11.53;;;5.30;;
21215;SDS011;10765;50.954;5.322;2024-03-23T02:15:56;14.77;;;5.27;;
21215;SDS011;10765;50.954;5.322;2024-03-23T02:18:22;9.37;;;4.60;;
21215;SDS011;10765;50.954;5.322;2024-03-23T02:20:50;13.70;;;5.50;;
21215;SDS011;10765;50.954;5.322;2024-03-23T02:23:18;10.50;;;4.90;;
21215;SDS011;10765;50.954;5.322;2024-03-23T02:25:45;14.90;;;5.67;;
21215;SDS011;10765;50.954;5.322;2024-03-23T02:28:11;15.37;;;5.70;;
21215;SDS011;10765;50.954;5.322;2024-03-23T02:30:38;16.90;;;5.87;;
21215;SDS011;10765;50.954;5.322;2024-03-23T02:33:04;14.70;;;5.27;;
21215;SDS011;10765;50.954;5.322;2024-03-23T02:35:31;16.23;;;5.97;;
21215;SDS011;10765;50.954;5.322;2024-03-23T02:37:57;18.43;;;5.97;;
21215;SDS011;10765;50.954;5.322;2024-03-23T02:40:25;13.80;;;5.50;;
21215;SDS011;10765;50.954;5.322;2024-03-23T02:42:53;12.23;;;5.53;;
21215;SDS011;10765;50.954;5.322;2024-03-23T02:45:20;12.17;;;5.60;;
21215;SDS011;10765;50.954;5.322;2024-03-23T02:47:46;13.17;;;5.33;;
21215;SDS011;10765;50.954;5.322;2024-03-23T02:50:17;11.60;;;5.20;;
21215;SDS011;10765;50.954;5.322;2024-03-23T02:52:43;14.47;;;5.70;;
21215;SDS011;10765;50.954;5.322;2024-03-23T02:55:10;12.00;;;6.03;;
21215;SDS011;10765;50.954;5.322;2024-03-23T02:57:37;13.67;;;5.70;;
21215;SDS011;10765;50.954;5.322;2024-03-23T03:00:04;13.23;;;5.60;;
21215;SDS011;10765;50.954;5.322;2024-03-23T03:02:32;16.10;;;5.93;;
21215;SDS011;10765;50.954;5.322;2024-03-23T03:04:59;17.03;;;5.83;;
21215;SDS011;10765;50.954;5.322;2024-03-23T03:07:25;13.73;;;6.67;;
21215;SDS011;10765;50.954;5.322;2024-03-23T03:09:52;11.73;;;5.73;;
21215;SDS011;10765;50.954;5.322;2024-03-23T03:12:18;16.07;;;5.97;;
21215;SDS011;10765;50.954;5.322;2024-03-23T03:14:46;13.17;;;5.97;;
21215;SDS011;10765;50.954;5.322;2024-03-23T03:17:12;17.07;;;6.00;;
21215;SDS011;10765;50.954;5.322;2024-03-23T03:19:39;14.70;;;6.13;;
21215;SDS011;10765;50.954;5.322;2024-03-23T03:22:05;14.83;;;5.93;;
21215;SDS011;10765;50.954;5.322;2024-03-23T03:24:32;14.67;;;6.27;;
21215;SDS011;10765;50.954;5.322;2024-03-23T03:26:58;11.03;;;6.13;;
21215;SDS011;10765;50.954;5.322;2024-03-23T03:29:25;15.20;;;5.10;;
21215;SDS011;10765;50.954;5.322;2024-03-23T03:31:52;14.03;;;5.17;;
21215;SDS011;10765;50.954;5.322;2024-03-23T03:34:19;14.30;;;5.87;;
21215;SDS011;10765;50.954;5.322;2024-03-23T03:36:45;10.97;;;5.70;;
21215;SDS011;10765;50.954;5.322;2024-03-23T03:39:12;16.17;;;5.77;;
21215;SDS011;10765;50.954;5.322;2024-03-23T03:41:37;11.80;;;4.80;;
21215;SDS011;10765;50.954;5.322;2024-03-23T03:44:04;13.07;;;4.70;;
21215;SDS011;10765;50.954;5.322;2024-03-23T03:46:30;8.53;;;4.63;;
21215;SDS011;10765;50.954;5.322;2024-03-23T03:48:58;15.43;;;5.47;;
21215;SDS011;10765;50.954;5.322;2024-03-23T03:51:24;16.50;;;5.67;;
21215;SDS011;10765;50.954;5.322;2024-03-23T03:53:51;9.70;;;5.10;;
21215;SDS011;10765;50.954;5.322;2024-03-23T03:56:17;9.07;;;4.20;;
21215;SDS011;10765;50.954;5.322;2024-03-23T03:58:44;14.60;;;5.40;;
21215;SDS011;10765;50.954;5.322;2024-03-23T04:01:10;13.27;;;4.60;;
21215;SDS011;10765;50.954;5.322;2024-03-23T04:03:36;11.40;;;4.50;;
21215;SDS011;10765;50.954;5.322;2024-03-23T04:06:06;15.03;;;4.13;;
21215;SDS011;10765;50.954;5.322;2024-03-23T04:08:33;11.97;;;4.73;;
21215;SDS011;10765;50.954;5.322;2024-03-23T04:10:58;12.43;;;4.87;;
21215;SDS011;10765;50.954;5.322;2024-03-23T04:13:25;17.07;;;5.87;;
21215;SDS011;10765;50.954;5.322;2024-03-23T04:15:53;13.40;;;4.77;;
21215;SDS011;10765;50.954;5.322;2024-03-23T04:18:20;15.20;;;5.47;;
21215;SDS011;10765;50.954;5.322;2024-03-23T04:20:46;9.63;;;4.63;;
21215;SDS011;10765;50.954;5.322;2024-03-23T04:23:14;12.27;;;5.43;;
21215;SDS011;10765;50.954;5.322;2024-03-23T04:25:40;12.40;;;5.23;;
21215;SDS011;10765;50.954;5.322;2024-03-23T04:28:07;13.63;;;5.27;;
21215;SDS011;10765;50.954;5.322;2024-03-23T04:30:33;12.63;;;5.27;;
21215;SDS011;10765;50.954;5.322;2024-03-23T04:33:00;14.77;;;5.70;;
21215;SDS011;10765;50.954;5.322;2024-03-23T04:35:26;13.43;;;6.27;;
21215;SDS011;10765;50.954;5.322;2024-03-23T04:37:53;12.43;;;6.00;;
21215;SDS011;10765;50.954;5.322;2024-03-23T04:40:22;12.83;;;6.03;;
21215;SDS011;10765;50.954;5.322;2024-03-23T04:42:48;14.73;;;6.87;;
21215;SDS011;10765;50.954;5.322;2024-03-23T04:45:15;14.83;;;6.70;;
21215;SDS011;10765;50.954;5.322;2024-03-23T04:47:42;15.93;;;7.00;;
21215;SDS011;10765;50.954;5.322;2024-03-23T04:50:09;14.77;;;7.50;;
21215;SDS011;10765;50.954;5.322;2024-03-23T04:52:36;15.87;;;7.70;;
21215;SDS011;10765;50.954;5.322;2024-03-23T04:55:03;13.70;;;7.67;;
21215;SDS011;10765;50.954;5.322;2024-03-23T04:57:32;14.93;;;7.87;;
21215;SDS011;10765;50.954;5.322;2024-03-23T04:59:58;15.77;;;7.57;;
21215;SDS011;10765;50.954;5.322;2024-03-23T05:02:28;15.27;;;8.60;;
21215;SDS011;10765;50.954;5.322;2024-03-23T05:04:55;17.60;;;7.73;;
21215;SDS011;10765;50.954;5.322;2024-03-23T05:07:20;16.73;;;7.97;;
21215;SDS011;10765;50.954;5.322;2024-03-23T05:09:48;18.03;;;9.33;;
21215;SDS011;10765;50.954;5.322;2024-03-23T05:12:14;17.80;;;9.20;;
21215;SDS011;10765;50.954;5.322;2024-03-23T05:14:42;17.17;;;9.13;;
21215;SDS011;10765;50.954;5.322;2024-03-23T05:17:08;19.93;;;10.07;;
21215;SDS011;10765;50.954;5.322;2024-03-23T05:19:35;18.03;;;9.77;;
21215;SDS011;10765;50.954;5.322;2024-03-23T05:22:01;17.67;;;10.20;;
21215;SDS011;10765;50.954;5.322;2024-03-23T05:24:27;18.67;;;10.80;;
21215;SDS011;10765;50.954;5.322;2024-03-23T05:26:53;22.73;;;11.37;;
21215;SDS011;10765;50.954;5.322;2024-03-23T05:29:23;19.10;;;11.37;;
21215;SDS011;10765;50.954;5.322;2024-03-23T05:31:51;24.57;;;11.50;;
21215;SDS011;10765;50.954;5.322;2024-03-23T05:34:18;20.07;;;11.50;;
21215;SDS011;10765;50.954;5.322;2024-03-23T05:36:44;21.07;;;12.23;;
21215;SDS011;10765;50.954;5.322;2024-03-23T05:39:10;21.43;;;12.10;;
21215;SDS011;10765;50.954;5.322;2024-03-23T05:41:36;18.43;;;11.60;;
21215;SDS011;10765;50.954;5.322;2024-03-23T05:44:03;25.73;;;12.67;;
21215;SDS011;10765;50.954;5.322;2024-03-23T05:46:29;26.03;;;13.47;;
21215;SDS011;10765;50.954;5.322;2024-03-23T05:48:58;23.50;;;12.93;;
21215;SDS011;10765;50.954;5.322;2024-03-23T05:51:28;26.63;;;13.50;;
21215;SDS011;10765;50.954;5.322;2024-03-23T05:53:54;21.80;;;12.60;;
21215;SDS011;10765;50.954;5.322;2024-03-23T05:56:21;22.93;;;13.67;;
21215;SDS011;10765;50.954;5.322;2024-03-23T05:58:47;22.07;;;12.60;;
21215;SDS011;10765;50.954;5.322;2024-03-23T06:01:14;22.77;;;12.23;;
21215;SDS011;10765;50.954;5.322;2024-03-23T06:03:39;22.67;;;13.17;;
21215;SDS011;10765;50.954;5.322;2024-03-23T06:06:10;21.37;;;11.77;;
21215;SDS011;10765;50.954;5.322;2024-03-23T06:08:37;21.43;;;12.47;;
21215;SDS011;10765;50.954;5.322;2024-03-23T06:11:04;23.40;;;12.73;;
21215;SDS011;10765;50.954;5.322;2024-03-23T06:13:31;21.50;;;12.77;;
21215;SDS011;10765;50.954;5.322;2024-03-23T06:15:58;21.60;;;11.83;;
21215;SDS011;10765;50.954;5.322;2024-03-23T06:18:24;19.37;;;11.33;;
21215;SDS011;10765;50.954;5.322;2024-03-23T06:20:51;17.50;;;10.70;;
21215;SDS011;10765;50.954;5.322;2024-03-23T06:23:19;18.40;;;11.07;;
21215;SDS011;10765;50.954;5.322;2024-03-23T06:25:46;25.40;;;11.87;;
21215;SDS011;10765;50.954;5.322;2024-03-23T06:28:12;16.73;;;10.53;;
21215;SDS011;10765;50.954;5.322;2024-03-23T06:30:39;17.40;;;11.57;;
21215;SDS011;10765;50.954;5.322;2024-03-23T06:33:05;20.97;;;12.07;;
21215;SDS011;10765;50.954;5.322;2024-03-23T06:35:31;21.70;;;12.07;;
21215;SDS011;10765;50.954;5.322;2024-03-23T06:37:57;19.37;;;11.40;;
21215;SDS011;10765;50.954;5.322;2024-03-23T06:40:26;17.83;;;11.70;;
21215;SDS011;10765;50.954;5.322;2024-03-23T06:42:51;16.50;;;9.77;;
21215;SDS011;10765;50.954;5.322;2024-03-23T06:45:18;16.63;;;8.03;;
21215;SDS011;10765;50.954;5.322;2024-03-23T06:47:48;13.37;;;6.97;;
21215;SDS011;10765;50.954;5.322;2024-03-23T06:50:15;11.10;;;6.53;;
21215;SDS011;10765;50.954;5.322;2024-03-23T06:52:41;11.77;;;6.07;;
21215;SDS011;10765;50.954;5.322;2024-03-23T06:55:08;14.70;;;6.50;;
21215;SDS011;10765;50.954;5.322;2024-03-23T06:57:35;11.33;;;5.90;;
21215;SDS011;10765;50.954;5.322;2024-03-23T07:00:02;10.67;;;5.83;;
21215;SDS011;10765;50.954;5.322;2024-03-23T07:02:28;11.47;;;5.70;;
21215;SDS011;10765;50.954;5.322;2024-03-23T07:04:55;10.73;;;6.23;;
21215;SDS011;10765;50.954;5.322;2024-03-23T07:07:22;12.00;;;5.97;;
21215;SDS011;10765;50.954;5.322;2024-03-23T07:09:49;13.23;;;5.73;;
21215;SDS011;10765;50.954;5.322;2024-03-23T07:12:14;13.60;;;6.57;;
21215;SDS011;10765;50.954;5.322;2024-03-23T07:14:43;12.63;;;6.30;;
21215;SDS011;10765;50.954;5.322;2024-03-23T07:17:08;12.90;;;5.83;;
21215;SDS011;10765;50.954;5.322;2024-03-23T07:19:42;10.63;;;5.40;;
21215;SDS011;10765;50.954;5.322;2024-03-23T07:22:08;11.10;;;5.33;;
21215;SDS011;10765;50.954;5.322;2024-03-23T07:24:35;8.00;;;4.47;;
21215;SDS011;10765;50.954;5.322;2024-03-23T07:27:01;10.33;;;4.97;;
21215;SDS011;10765;50.954;5.322;2024-03-23T07:29:28;15.90;;;5.50;;
21215;SDS011;10765;50.954;5.322;2024-03-23T07:31:56;10.20;;;4.90;;
21215;SDS011;10765;50.954;5.322;2024-03-23T07:34:23;9.87;;;5.27;;
21215;SDS011;10765;50.954;5.322;2024-03-23T07:36:49;10.17;;;5.27;;
21215;SDS011;10765;50.954;5.322;2024-03-23T07:39:16;11.23;;;5.30;;
21215;SDS011;10765;50.954;5.322;2024-03-23T07:41:44;10.53;;;5.67;;
21215;SDS011;10765;50.954;5.322;2024-03-23T07:44:11;12.23;;;5.37;;
21215;SDS011;10765;50.954;5.322;2024-03-23T07:46:37;14.63;;;5.00;;
21215;SDS011;10765;50.954;5.322;2024-03-23T07:49:06;9.37;;;4.27;;
21215;SDS011;10765;50.954;5.322;2024-03-23T07:51:32;11.53;;;4.70;;
21215;SDS011;10765;50.954;5.322;2024-03-23T07:54:00;9.57;;;4.17;;
21215;SDS011;10765;50.954;5.322;2024-03-23T07:56:25;14.67;;;4.70;;
21215;SDS011;10765;50.954;5.322;2024-03-23T07:58:52;10.23;;;4.27;;
21215;SDS011;10765;50.954;5.322;2024-03-23T08:01:18;7.53;;;3.10;;
21215;SDS011;10765;50.954;5.322;2024-03-23T08:03:45;9.73;;;3.47;;
21215;SDS011;10765;50.954;5.322;2024-03-23T08:06:13;11.17;;;3.60;;
21215;SDS011;10765;50.954;5.322;2024-03-23T08:08:41;9.20;;;3.17;;
21215;SDS011;10765;50.954;5.322;2024-03-23T08:11:08;8.13;;;2.53;;
21215;SDS011;10765;50.954;5.322;2024-03-23T08:13:35;10.13;;;2.73;;
21215;SDS011;10765;50.954;5.322;2024-03-23T08:16:02;8.27;;;2.73;;
21215;SDS011;10765;50.954;5.322;2024-03-23T08:18:30;8.17;;;2.77;;
21215;SDS011;10765;50.954;5.322;2024-03-23T08:20:56;8.87;;;3.00;;
21215;SDS011;10765;50.954;5.322;2024-03-23T08:23:25;7.63;;;2.70;;
21215;SDS011;10765;50.954;5.322;2024-03-23T08:25:52;8.00;;;2.57;;
21215;SDS011;10765;50.954;5.322;2024-03-23T08:28:23;8.70;;;2.80;;
21215;SDS011;10765;50.954;5.322;2024-03-23T08:30:49;10.73;;;2.77;;
21215;SDS011;10765;50.954;5.322;2024-03-23T08:33:16;12.77;;;2.90;;
21215;SDS011;10765;50.954;5.322;2024-03-23T08:35:42;7.43;;;2.50;;
21215;SDS011;10765;50.954;5.322;2024-03-23T08:38:09;8.13;;;2.30;;
21215;SDS011;10765;50.954;5.322;2024-03-23T08:40:36;7.60;;;2.63;;
21215;SDS011;10765;50.954;5.322;2024-03-23T08:43:03;7.97;;;2.63;;
21215;SDS011;10765;50.954;5.322;2024-03-23T08:45:29;6.87;;;2.27;;
21215;SDS011;10765;50.954;5.322;2024-03-23T08:47:56;7.40;;;2.10;;
21215;SDS011;10765;50.954;5.322;2024-03-23T08:50:22;6.30;;;2.50;;
21215;SDS011;10765;50.954;5.322;2024-03-23T08:52:50;7.47;;;2.47;;
21215;SDS011;10765;50.954;5.322;2024-03-23T08:55:16;7.67;;;2.50;;
21215;SDS011;10765;50.954;5.322;2024-03-23T08:57:44;7.23;;;2.50;;
21215;SDS011;10765;50.954;5.322;2024-03-23T09:00:11;7.77;;;2.47;;
21215;SDS011;10765;50.954;5.322;2024-03-23T09:02:39;6.97;;;2.90;;
21215;SDS011;10765;50.954;5.322;2024-03-23T09:05:05;6.23;;;2.37;;
21215;SDS011;10765;50.954;5.322;2024-03-23T09:07:33;6.33;;;2.30;;
21215;SDS011;10765;50.954;5.322;2024-03-23T09:09:59;6.90;;;2.10;;
21215;SDS011;10765;50.954;5.322;2024-03-23T09:12:26;4.80;;;1.90;;
21215;SDS011;10765;50.954;5.322;2024-03-23T09:14:53;4.87;;;1.93;;
21215;SDS011;10765;50.954;5.322;2024-03-23T09:17:20;8.40;;;2.20;;
21215;SDS011;10765;50.954;5.322;2024-03-23T09:19:46;5.87;;;1.83;;
21215;SDS011;10765;50.954;5.322;2024-03-23T09:22:13;7.63;;;2.10;;
21215;SDS011;10765;50.954;5.322;2024-03-23T09:24:39;5.93;;;2.30;;
21215;SDS011;10765;50.954;5.322;2024-03-23T09:27:06;9.23;;;2.47;;
21215;SDS011;10765;50.954;5.322;2024-03-23T09:29:33;7.70;;;2.43;;
21215;SDS011;10765;50.954;5.322;2024-03-23T09:32:01;8.73;;;2.43;;
21215;SDS011;10765;50.954;5.322;2024-03-23T09:34:27;7.83;;;2.30;;
21215;SDS011;10765;50.954;5.322;2024-03-23T09:36:54;7.90;;;2.70;;
21215;SDS011;10765;50.954;5.322;2024-03-23T09:39:20;6.87;;;2.00;;
21215;SDS011;10765;50.954;5.322;2024-03-23T09:41:47;6.90;;;1.90;;
21215;SDS011;10765;50.954;5.322;2024-03-23T09:44:12;5.40;;;1.90;;
21215;SDS011;10765;50.954;5.322;2024-03-23T09:46:39;7.07;;;1.70;;
21215;SDS011;10765;50.954;5.322;2024-03-23T09:49:07;4.63;;;1.50;;
21215;SDS011;10765;50.954;5.322;2024-03-23T09:51:36;6.07;;;1.87;;
21215;SDS011;10765;50.954;5.322;2024-03-23T09:54:02;7.03;;;1.83;;
21215;SDS011;10765;50.954;5.322;2024-03-23T09:56:29;8.50;;;2.33;;
21215;SDS011;10765;50.954;5.322;2024-03-23T09:59:00;7.77;;;2.30;;
21215;SDS011;10765;50.954;5.322;2024-03-23T10:01:29;7.57;;;2.43;;
21215;SDS011;10765;50.954;5.322;2024-03-23T10:03:55;7.57;;;2.23;;
21215;SDS011;10765;50.954;5.322;2024-03-23T10:06:23;8.23;;;2.30;;
21215;SDS011;10765;50.954;5.322;2024-03-23T10:08:50;11.53;;;2.97;;
21215;SDS011;10765;50.954;5.322;2024-03-23T10:11:18;6.23;;;2.53;;
21215;SDS011;10765;50.954;5.322;2024-03-23T10:13:45;6.30;;;2.37;;
21215;SDS011;10765;50.954;5.322;2024-03-23T10:16:20;10.40;;;2.47;;
21215;SDS011;10765;50.954;5.322;2024-03-23T10:18:47;5.07;;;2.10;;
21215;SDS011;10765;50.954;5.322;2024-03-23T10:21:14;5.43;;;2.00;;
21215;SDS011;10765;50.954;5.322;2024-03-23T10:23:42;6.57;;;1.93;;
21215;SDS011;10765;50.954;5.322;2024-03-23T10:26:17;5.37;;;2.00;;
21215;SDS011;10765;50.954;5.322;2024-03-23T10:31:34;5.40;;;1.83;;
21215;SDS011;10765;50.954;5.322;2024-03-23T10:34:02;3.47;;;2.00;;
21215;SDS011;10765;50.954;5.322;2024-03-23T10:36:29;4.20;;;1.80;;
21215;SDS011;10765;50.954;5.322;2024-03-23T10:38:56;5.97;;;1.87;;
21215;SDS011;10765;50.954;5.322;2024-03-23T10:41:24;5.43;;;1.90;;
21215;SDS011;10765;50.954;5.322;2024-03-23T10:43:52;7.20;;;2.13;;
21215;SDS011;10765;50.954;5.322;2024-03-23T10:46:21;4.77;;;1.50;;
21215;SDS011;10765;50.954;5.322;2024-03-23T10:48:47;6.80;;;2.03;;
21215;SDS011;10765;50.954;5.322;2024-03-23T10:51:15;2.00;;;1.13;;
21215;SDS011;10765;50.954;5.322;2024-03-23T10:53:41;2.63;;;0.97;;
21215;SDS011;10765;50.954;5.322;2024-03-23T10:56:09;1.93;;;1.30;;
21215;SDS011;10765;50.954;5.322;2024-03-23T10:58:38;3.50;;;1.40;;
21215;SDS011;10765;50.954;5.322;2024-03-23T11:01:07;2.73;;;1.10;;
21215;SDS011;10765;50.954;5.322;2024-03-23T11:03:36;3.57;;;1.17;;
21215;SDS011;10765;50.954;5.322;2024-03-23T11:06:04;4.07;;;1.60;;
21215;SDS011;10765;50.954;5.322;2024-03-23T11:08:31;3.17;;;1.20;;
21215;SDS011;10765;50.954;5.322;2024-03-23T11:11:12;2.27;;;1.40;;
21215;SDS011;10765;50.954;5.322;2024-03-23T11:13:47;4.77;;;1.53;;
21215;SDS011;10765;50.954;5.322;2024-03-23T11:16:14;4.27;;;1.60;;
21215;SDS011;10765;50.954;5.322;2024-03-23T11:18:42;5.57;;;2.23;;
21215;SDS011;10765;50.954;5.322;2024-03-23T11:21:09;4.00;;;1.30;;
21215;SDS011;10765;50.954;5.322;2024-03-23T11:23:36;3.40;;;1.30;;
21215;SDS011;10765;50.954;5.322;2024-03-23T11:26:06;5.17;;;1.73;;
21215;SDS011;10765;50.954;5.322;2024-03-23T11:28:35;4.70;;;1.50;;
21215;SDS011;10765;50.954;5.322;2024-03-23T11:31:01;2.43;;;1.00;;
21215;SDS011;10765;50.954;5.322;2024-03-23T11:33:27;2.87;;;1.20;;
21215;SDS011;10765;50.954;5.322;2024-03-23T11:35:54;2.73;;;1.20;;
21215;SDS011;10765;50.954;5.322;2024-03-23T11:38:21;3.60;;;1.07;;
21215;SDS011;10765;50.954;5.322;2024-03-23T11:40:48;5.13;;;1.50;;
21215;SDS011;10765;50.954;5.322;2024-03-23T11:43:15;5.77;;;1.50;;
21215;SDS011;10765;50.954;5.322;2024-03-23T11:45:44;3.43;;;1.63;;
21215;SDS011;10765;50.954;5.322;2024-03-23T11:48:12;4.97;;;1.83;;
21215;SDS011;10765;50.954;5.322;2024-03-23T11:50:39;5.20;;;1.80;;
21215;SDS011;10765;50.954;5.322;2024-03-23T11:53:13;5.07;;;2.00;;
21215;SDS011;10765;50.954;5.322;2024-03-23T11:55:46;2.93;;;1.73;;
21215;SDS011;10765;50.954;5.322;2024-03-23T11:58:15;4.63;;;1.70;;
21215;SDS011;10765;50.954;5.322;2024-03-23T12:00:41;4.37;;;1.43;;
21215;SDS011;10765;50.954;5.322;2024-03-23T12:03:15;2.07;;;1.00;;
21215;SDS011;10765;50.954;5.322;2024-03-23T12:05:46;3.40;;;2.00;;
21215;SDS011;10765;50.954;5.322;2024-03-23T12:08:16;7.13;;;4.87;;
21215;SDS011;10765;50.954;5.322;2024-03-23T12:10:44;2.00;;;0.80;;
21215;SDS011;10765;50.954;5.322;2024-03-23T12:13:14;1.90;;;0.70;;
21215;SDS011;10765;50.954;5.322;2024-03-23T12:15:47;1.60;;;0.80;;
21215;SDS011;10765;50.954;5.322;2024-03-23T12:18:14;2.23;;;1.10;;
21215;SDS011;10765;50.954;5.322;2024-03-23T12:20:41;1.63;;;0.97;;
21215;SDS011;10765;50.954;5.322;2024-03-23T12:23:08;3.10;;;1.23;;
21215;SDS011;10765;50.954;5.322;2024-03-23T12:25:36;17.43;;;13.30;;
21215;SDS011;10765;50.954;5.322;2024-03-23T12:28:02;2.60;;;1.50;;
21215;SDS011;10765;50.954;5.322;2024-03-23T12:30:31;4.60;;;1.50;;
21215;SDS011;10765;50.954;5.322;2024-03-23T12:32:59;5.20;;;1.70;;
21215;SDS011;10765;50.954;5.322;2024-03-23T12:35:26;4.07;;;1.70;;
21215;SDS011;10765;50.954;5.322;2024-03-23T12:37:52;4.00;;;1.90;;
21215;SDS011;10765;50.954;5.322;2024-03-23T12:40:18;4.03;;;1.77;;
21215;SDS011;10765;50.954;5.322;2024-03-23T12:42:44;4.63;;;2.20;;
21215;SDS011;10765;50.954;5.322;2024-03-23T12:45:11;4.07;;;2.10;;
21215;SDS011;10765;50.954;5.322;2024-03-23T12:47:37;24.50;;;22.37;;
21215;SDS011;10765;50.954;5.322;2024-03-23T12:50:06;6.63;;;1.87;;
21215;SDS011;10765;50.954;5.322;2024-03-23T12:52:32;6.30;;;2.23;;
21215;SDS011;10765;50.954;5.322;2024-03-23T12:54:59;4.47;;;1.73;;
21215;SDS011;10765;50.954;5.322;2024-03-23T12:57:25;4.40;;;1.87;;
21215;SDS011;10765;50.954;5.322;2024-03-23T12:59:53;6.03;;;1.80;;
21215;SDS011;10765;50.954;5.322;2024-03-23T13:02:19;5.87;;;1.80;;
21215;SDS011;10765;50.954;5.322;2024-03-23T13:04:46;2.40;;;1.37;;
21215;SDS011;10765;50.954;5.322;2024-03-23T13:07:16;5.47;;;1.40;;
21215;SDS011;10765;50.954;5.322;2024-03-23T13:09:43;3.87;;;1.20;;
21215;SDS011;10765;50.954;5.322;2024-03-23T13:12:09;3.67;;;1.67;;
21215;SDS011;10765;50.954;5.322;2024-03-23T13:14:37;4.40;;;1.60;;
21215;SDS011;10765;50.954;5.322;2024-03-23T13:17:03;5.77;;;1.60;;
21215;SDS011;10765;50.954;5.322;2024-03-23T13:19:30;5.03;;;1.80;;
21215;SDS011;10765;50.954;5.322;2024-03-23T13:22:02;4.67;;;1.67;;
21215;SDS011;10765;50.954;5.322;2024-03-23T13:24:30;2.60;;;1.30;;
21215;SDS011;10765;50.954;5.322;2024-03-23T13:26:57;5.13;;;1.60;;
21215;SDS011;10765;50.954;5.322;2024-03-23T13:29:24;4.73;;;1.67;;
21215;SDS011;10765;50.954;5.322;2024-03-23T13:31:50;3.00;;;1.50;;
21215;SDS011;10765;50.954;5.322;2024-03-23T13:34:18;12.50;;;9.47;;
21215;SDS011;10765;50.954;5.322;2024-03-23T13:36:45;3.67;;;1.87;;
21215;SDS011;10765;50.954;5.322;2024-03-23T13:39:12;5.60;;;1.63;;
21215;SDS011;10765;50.954;5.322;2024-03-23T13:41:40;4.63;;;1.60;;
21215;SDS011;10765;50.954;5.322;2024-03-23T13:44:08;4.77;;;1.50;;
21215;SDS011;10765;50.954;5.322;2024-03-23T13:46:35;4.67;;;1.43;;
21215;SDS011;10765;50.954;5.322;2024-03-23T13:49:02;1.93;;;0.93;;
21215;SDS011;10765;50.954;5.322;2024-03-23T13:51:28;2.37;;;1.10;;
21215;SDS011;10765;50.954;5.322;2024-03-23T13:53:55;1.70;;;1.00;;
21215;SDS011;10765;50.954;5.322;2024-03-23T13:56:22;3.00;;;1.07;;
21215;SDS011;10765;50.954;5.322;2024-03-23T13:58:50;4.37;;;1.33;;
21215;SDS011;10765;50.954;5.322;2024-03-23T14:01:16;5.10;;;1.10;;
21215;SDS011;10765;50.954;5.322;2024-03-23T14:03:43;2.47;;;1.00;;
21215;SDS011;10765;50.954;5.322;2024-03-23T14:06:09;3.67;;;1.03;;
21215;SDS011;10765;50.954;5.322;2024-03-23T14:08:37;3.40;;;1.53;;
21215;SDS011;10765;50.954;5.322;2024-03-23T14:11:07;1.53;;;1.00;;
21215;SDS011;10765;50.954;5.322;2024-03-23T14:13:34;3.50;;;1.80;;
21215;SDS011;10765;50.954;5.322;2024-03-23T14:16:02;2.60;;;0.90;;
21215;SDS011;10765;50.954;5.322;2024-03-23T14:18:29;0.97;;;0.53;;
21215;SDS011;10765;50.954;5.322;2024-03-23T14:20:56;1.63;;;0.70;;
21215;SDS011;10765;50.954;5.322;2024-03-23T14:23:24;1.83;;;0.93;;
21215;SDS011;10765;50.954;5.322;2024-03-23T14:25:52;1.10;;;0.70;;
21215;SDS011;10765;50.954;5.322;2024-03-23T14:28:19;2.23;;;0.70;;
21215;SDS011;10765;50.954;5.322;2024-03-23T14:30:47;3.43;;;1.07;;
21215;SDS011;10765;50.954;5.322;2024-03-23T14:33:16;2.77;;;0.80;;
21215;SDS011;10765;50.954;5.322;2024-03-23T14:35:43;6.27;;;1.10;;
21215;SDS011;10765;50.954;5.322;2024-03-23T14:38:11;3.80;;;1.20;;
21215;SDS011;10765;50.954;5.322;2024-03-23T14:40:37;4.27;;;1.60;;
21215;SDS011;10765;50.954;5.322;2024-03-23T14:43:04;4.90;;;1.70;;
21215;SDS011;10765;50.954;5.322;2024-03-23T14:45:29;2.40;;;1.80;;
21215;SDS011;10765;50.954;5.322;2024-03-23T14:47:56;4.70;;;2.40;;
21215;SDS011;10765;50.954;5.322;2024-03-23T14:50:25;4.00;;;2.00;;
21215;SDS011;10765;50.954;5.322;2024-03-23T14:52:52;5.33;;;2.23;;
21215;SDS011;10765;50.954;5.322;2024-03-23T14:55:18;3.67;;;1.93;;
21215;SDS011;10765;50.954;5.322;2024-03-23T14:57:45;5.50;;;2.30;;
21215;SDS011;10765;50.954;5.322;2024-03-23T15:00:11;2.93;;;1.80;;
21215;SDS011;10765;50.954;5.322;2024-03-23T15:02:39;4.07;;;2.53;;
21215;SDS011;10765;50.954;5.322;2024-03-23T15:05:05;4.43;;;1.70;;
21215;SDS011;10765;50.954;5.322;2024-03-23T15:07:36;3.70;;;1.60;;
21215;SDS011;10765;50.954;5.322;2024-03-23T15:10:03;3.73;;;1.97;;
21215;SDS011;10765;50.954;5.322;2024-03-23T15:12:30;4.97;;;1.90;;
21215;SDS011;10765;50.954;5.322;2024-03-23T15:14:58;3.80;;;1.40;;
21215;SDS011;10765;50.954;5.322;2024-03-23T15:17:25;2.80;;;1.77;;
21215;SDS011;10765;50.954;5.322;2024-03-23T15:19:51;5.27;;;1.83;;
21215;SDS011;10765;50.954;5.322;2024-03-23T15:22:18;4.33;;;1.60;;
21215;SDS011;10765;50.954;5.322;2024-03-23T15:24:46;3.27;;;1.60;;
21215;SDS011;10765;50.954;5.322;2024-03-23T15:27:12;4.17;;;1.40;;
21215;SDS011;10765;50.954;5.322;2024-03-23T15:29:38;3.07;;;0.97;;
21215;SDS011;10765;50.954;5.322;2024-03-23T15:32:07;3.17;;;1.20;;
21215;SDS011;10765;50.954;5.322;2024-03-23T15:34:33;2.70;;;1.40;;
21215;SDS011;10765;50.954;5.322;2024-03-23T15:37:00;2.63;;;1.03;;